sensor_id;sensor_type;location;lat;lon;timestamp;pressure;altitude;pressure_sealevel;temperature;humidity
3132;BME280;62090;52.330;9.104;2023-12-20T00:00:31;100484.47;;;7.36;100.00
3132;BME280;62090;52.330;9.104;2023-12-20T00:03:01;100649.78;;;8.27;100.00
3132;BME280;62090;52.330;9.104;2023-12-20T00:05:33;100562.03;;;7.56;100.00
3132;BME280;62090;52.330;9.104;2023-12-20T00:08:05;100558.25;;;7.69;100.00
3132;BME280;62090;52.330;9.104;2023-12-20T00:10:35;100667.56;;;8.27;100.00
3132;BME280;62090;52.330;9.104;2023-12-20T00:13:05;100635.19;;;7.95;100.00
3132;BME280;62090;52.330;9.104;2023-12-20T00:15:36;100662.97;;;7.90;100.00
3132;BME280;62090;52.330;9.104;2023-12-20T00:18:06;100692.22;;;8.30;100.00
3132;BME280;62090;52.330;9.104;2023-12-20T00:20:39;100681.50;;;8.13;100.00
3132;BME280;62090;52.330;9.104;2023-12-20T00:23:09;100708.19;;;8.27;100.00
3132;BME280;62090;52.330;9.104;2023-12-20T00:25:39;100666.78;;;8.03;100.00
3132;BME280;62090;52.330;9.104;2023-12-20T00:28:09;100692.69;;;8.20;100.00
3132;BME280;62090;52.330;9.104;2023-12-20T00:30:39;100582.59;;;7.40;100.00
3132;BME280;62090;52.330;9.104;2023-12-20T00:33:09;100645.94;;;7.88;100.00
3132;BME280;62090;52.330;9.104;2023-12-20T00:35:41;100578.25;;;7.60;100.00
3132;BME280;62090;52.330;9.104;2023-12-20T00:38:11;100562.47;;;7.43;100.00
3132;BME280;62090;52.330;9.104;2023-12-20T00:40:41;100527.31;;;7.29;100.00
3132;BME280;62090;52.330;9.104;2023-12-20T00:43:11;100599.38;;;7.60;100.00
3132;BME280;62090;52.330;9.104;2023-12-20T00:45:41;100646.22;;;7.95;100.00
3132;BME280;62090;52.330;9.104;2023-12-20T00:48:11;100483.09;;;6.95;100.00
3132;BME280;62090;52.330;9.104;2023-12-20T00:50:44;100571.94;;;7.49;100.00
3132;BME280;62090;52.330;9.104;2023-12-20T00:53:14;100642.44;;;7.84;100.00
3132;BME280;62090;52.330;9.104;2023-12-20T00:55:44;100545.00;;;7.27;100.00
3132;BME280;62090;52.330;9.104;2023-12-20T00:58:14;100577.06;;;7.50;100.00
3132;BME280;62090;52.330;9.104;2023-12-20T01:00:45;100665.63;;;7.95;100.00
3132;BME280;62090;52.330;9.104;2023-12-20T01:03:15;100560.41;;;7.33;100.00
3132;BME280;62090;52.330;9.104;2023-12-20T01:05:47;100646.22;;;7.95;100.00
3132;BME280;62090;52.330;9.104;2023-12-20T01:08:17;100690.88;;;8.16;100.00
3132;BME280;62090;52.330;9.104;2023-12-20T01:10:47;100570.34;;;7.27;100.00
3132;BME280;62090;52.330;9.104;2023-12-20T01:13:17;100590.22;;;7.40;100.00
3132;BME280;62090;52.330;9.104;2023-12-20T01:15:47;100570.78;;;7.39;100.00
3132;BME280;62090;52.330;9.104;2023-12-20T01:18:17;100667.88;;;7.86;100.00
3132;BME280;62090;52.330;9.104;2023-12-20T01:20:50;100625.06;;;7.70;100.00
3132;BME280;62090;52.330;9.104;2023-12-20T01:23:19;100632.56;;;7.67;100.00
3132;BME280;62090;52.330;9.104;2023-12-20T01:25:49;100710.22;;;8.12;100.00
3132;BME280;62090;52.330;9.104;2023-12-20T01:28:19;100516.75;;;6.93;100.00
3132;BME280;62090;52.330;9.104;2023-12-20T01:30:49;100578.75;;;7.26;100.00
3132;BME280;62090;52.330;9.104;2023-12-20T01:33:19;100651.78;;;7.60;100.00
3132;BME280;62090;52.330;9.104;2023-12-20T01:35:52;100387.19;;;5.87;100.00
3132;BME280;62090;52.330;9.104;2023-12-20T01:38:22;100597.78;;;7.15;100.00
3132;BME280;62090;52.330;9.104;2023-12-20T01:40:52;100670.53;;;7.65;100.00
3132;BME280;62090;52.330;9.104;2023-12-20T01:43:22;100544.53;;;6.90;100.00
3132;BME280;62090;52.330;9.104;2023-12-20T01:45:57;100721.16;;;7.86;100.00
3132;BME280;62090;52.330;9.104;2023-12-20T01:48:28;100422.97;;;5.96;100.00
3132;BME280;62090;52.330;9.104;2023-12-20T01:51:02;100527.75;;;6.47;100.00
3132;BME280;62090;52.330;9.104;2023-12-20T01:53:32;100701.84;;;7.66;100.00
3132;BME280;62090;52.330;9.104;2023-12-20T01:56:03;100519.53;;;6.53;100.00
3132;BME280;62090;52.330;9.104;2023-12-20T01:58:34;100663.09;;;7.46;100.00
3132;BME280;62090;52.330;9.104;2023-12-20T02:01:04;100714.69;;;7.70;100.00
3132;BME280;62090;52.330;9.104;2023-12-20T02:03:34;100536.84;;;6.64;100.00
3132;BME280;62090;52.330;9.104;2023-12-20T02:06:07;100464.50;;;6.25;100.00
3132;BME280;62090;52.330;9.104;2023-12-20T02:08:37;100639.00;;;7.33;100.00
3132;BME280;62090;52.330;9.104;2023-12-20T02:11:07;100687.16;;;7.57;100.00
3132;BME280;62090;52.330;9.104;2023-12-20T02:13:35;100690.63;;;7.59;100.00
3132;BME280;62090;52.330;9.104;2023-12-20T02:16:05;100581.38;;;7.05;100.00
3132;BME280;62090;52.330;9.104;2023-12-20T02:18:35;100612.09;;;7.13;100.00
3132;BME280;62090;52.330;9.104;2023-12-20T02:21:09;100676.78;;;7.51;100.00
3132;BME280;62090;52.330;9.104;2023-12-20T02:23:41;100638.59;;;7.22;100.00
3132;BME280;62090;52.330;9.104;2023-12-20T02:26:12;100586.72;;;6.89;100.00
3132;BME280;62090;52.330;9.104;2023-12-20T02:28:42;100514.41;;;6.51;100.00
3132;BME280;62090;52.330;9.104;2023-12-20T02:31:12;100415.00;;;5.87;100.00
3132;BME280;62090;52.330;9.104;2023-12-20T02:33:42;100560.44;;;6.63;100.00
3132;BME280;62090;52.330;9.104;2023-12-20T02:36:12;100577.91;;;6.79;100.00
3132;BME280;62090;52.330;9.104;2023-12-20T02:38:45;100649.84;;;7.29;100.00
3132;BME280;62090;52.330;9.104;2023-12-20T02:41:15;100588.38;;;6.66;100.00
3132;BME280;62090;52.330;9.104;2023-12-20T02:43:45;100541.63;;;6.57;100.00
3132;BME280;62090;52.330;9.104;2023-12-20T02:46:16;100616.47;;;6.95;100.00
3132;BME280;62090;52.330;9.104;2023-12-20T02:48:47;100547.63;;;6.59;100.00
3132;BME280;62090;52.330;9.104;2023-12-20T02:51:17;100660.88;;;7.09;100.00
3132;BME280;62090;52.330;9.104;2023-12-20T02:53:49;100510.50;;;6.37;100.00
3132;BME280;62090;52.330;9.104;2023-12-20T02:56:19;100623.53;;;7.03;100.00
3132;BME280;62090;52.330;9.104;2023-12-20T02:58:49;100434.44;;;5.88;100.00
3132;BME280;62090;52.330;9.104;2023-12-20T03:01:19;100516.50;;;6.39;100.00
3132;BME280;62090;52.330;9.104;2023-12-20T03:03:49;100661.66;;;7.06;100.00
3132;BME280;62090;52.330;9.104;2023-12-20T03:06:19;100656.06;;;7.15;100.00
3132;BME280;62090;52.330;9.104;2023-12-20T03:08:52;100531.09;;;6.46;100.00
3132;BME280;62090;52.330;9.104;2023-12-20T03:11:22;100511.91;;;6.29;100.00
3132;BME280;62090;52.330;9.104;2023-12-20T03:13:56;100616.84;;;6.82;100.00
3132;BME280;62090;52.330;9.104;2023-12-20T03:16:26;100591.06;;;6.69;100.00
3132;BME280;62090;52.330;9.104;2023-12-20T03:18:56;100609.97;;;6.79;100.00
3132;BME280;62090;52.330;9.104;2023-12-20T03:21:25;100648.81;;;7.02;100.00
3132;BME280;62090;52.330;9.104;2023-12-20T03:23:58;100488.44;;;6.11;100.00
3132;BME280;62090;52.330;9.104;2023-12-20T03:26:28;100567.00;;;6.58;100.00
3132;BME280;62090;52.330;9.104;2023-12-20T03:28:58;100607.75;;;6.64;100.00
3132;BME280;62090;52.330;9.104;2023-12-20T03:31:28;100561.47;;;6.68;100.00
3132;BME280;62090;52.330;9.104;2023-12-20T03:33:57;100481.19;;;6.20;100.00
3132;BME280;62090;52.330;9.104;2023-12-20T03:36:28;100581.72;;;6.91;100.00
3132;BME280;62090;52.330;9.104;2023-12-20T03:39:00;100405.75;;;5.87;100.00
3132;BME280;62090;52.330;9.104;2023-12-20T03:41:30;100479.13;;;6.32;100.00
3132;BME280;62090;52.330;9.104;2023-12-20T03:44:00;100542.19;;;6.72;100.00
3132;BME280;62090;52.330;9.104;2023-12-20T03:46:30;100483.53;;;6.38;100.00
3132;BME280;62090;52.330;9.104;2023-12-20T03:49:00;100607.09;;;7.16;100.00
3132;BME280;62090;52.330;9.104;2023-12-20T03:51:30;100402.09;;;6.02;100.00
3132;BME280;62090;52.330;9.104;2023-12-20T03:54:03;100619.69;;;7.37;100.00
3132;BME280;62090;52.330;9.104;2023-12-20T03:56:33;100510.66;;;6.64;100.00
3132;BME280;62090;52.330;9.104;2023-12-20T03:59:03;100496.69;;;6.51;100.00
3132;BME280;62090;52.330;9.104;2023-12-20T04:01:52;100634.97;;;7.16;100.00
3132;BME280;62090;52.330;9.104;2023-12-20T04:05:03;100399.78;;;5.85;100.00
3132;BME280;62090;52.330;9.104;2023-12-20T04:14:54;100415.41;;;5.98;100.00
3132;BME280;62090;52.330;9.104;2023-12-20T04:17:24;100606.25;;;7.15;100.00
3132;BME280;62090;52.330;9.104;2023-12-20T04:19:54;100396.03;;;5.97;100.00
3132;BME280;62090;52.330;9.104;2023-12-20T04:22:24;100358.22;;;5.79;100.00
3132;BME280;62090;52.330;9.104;2023-12-20T04:24:54;100615.25;;;7.31;100.00
3132;BME280;62090;52.330;9.104;2023-12-20T04:27:24;100518.19;;;6.62;100.00
3132;BME280;62090;52.330;9.104;2023-12-20T04:29:57;100508.44;;;6.49;100.00
3132;BME280;62090;52.330;9.104;2023-12-20T04:32:27;100578.22;;;7.11;100.00
3132;BME280;62090;52.330;9.104;2023-12-20T04:34:57;100597.50;;;7.31;100.00
3132;BME280;62090;52.330;9.104;2023-12-20T04:37:27;100580.03;;;7.15;100.00
3132;BME280;62090;52.330;9.104;2023-12-20T04:40:00;100611.28;;;7.38;100.00
3132;BME280;62090;52.330;9.104;2023-12-20T04:42:30;100582.72;;;7.19;100.00
3132;BME280;62090;52.330;9.104;2023-12-20T04:45:02;100595.97;;;7.35;100.00
3132;BME280;62090;52.330;9.104;2023-12-20T04:47:32;100603.81;;;7.42;100.00
3132;BME280;62090;52.330;9.104;2023-12-20T04:50:03;100598.69;;;7.41;100.00
3132;BME280;62090;52.330;9.104;2023-12-20T04:52:33;100617.34;;;7.43;100.00
3132;BME280;62090;52.330;9.104;2023-12-20T04:55:04;100564.19;;;7.20;100.00
3132;BME280;62090;52.330;9.104;2023-12-20T04:57:35;100614.38;;;7.54;100.00
3132;BME280;62090;52.330;9.104;2023-12-20T05:00:09;100565.44;;;7.32;100.00
3132;BME280;62090;52.330;9.104;2023-12-20T05:02:39;100598.88;;;7.45;100.00
3132;BME280;62090;52.330;9.104;2023-12-20T05:05:09;100571.94;;;7.25;100.00
3132;BME280;62090;52.330;9.104;2023-12-20T05:07:39;100572.16;;;7.31;100.00
3132;BME280;62090;52.330;9.104;2023-12-20T05:10:10;100599.88;;;7.50;100.00
3132;BME280;62090;52.330;9.104;2023-12-20T05:12:40;100564.50;;;7.30;100.00
3132;BME280;62090;52.330;9.104;2023-12-20T05:15:12;100569.03;;;7.38;100.00
3132;BME280;62090;52.330;9.104;2023-12-20T05:17:42;100593.81;;;7.45;100.00
3132;BME280;62090;52.330;9.104;2023-12-20T05:20:12;100570.50;;;7.32;100.00
3132;BME280;62090;52.330;9.104;2023-12-20T05:22:42;100589.19;;;7.35;100.00
3132;BME280;62090;52.330;9.104;2023-12-20T05:25:12;100599.31;;;7.34;100.00
3132;BME280;62090;52.330;9.104;2023-12-20T05:27:42;100584.75;;;7.28;100.00
3132;BME280;62090;52.330;9.104;2023-12-20T05:30:16;100568.41;;;7.20;100.00
3132;BME280;62090;52.330;9.104;2023-12-20T05:32:45;100391.69;;;6.16;100.00
3132;BME280;62090;52.330;9.104;2023-12-20T05:35:16;100577.34;;;7.34;100.00
3132;BME280;62090;52.330;9.104;2023-12-20T05:37:46;100590.94;;;7.36;100.00
3132;BME280;62090;52.330;9.104;2023-12-20T05:40:16;100567.53;;;7.19;100.00
3132;BME280;62090;52.330;9.104;2023-12-20T05:42:46;100586.19;;;7.21;100.00
3132;BME280;62090;52.330;9.104;2023-12-20T05:45:18;100598.28;;;7.29;100.00
3132;BME280;62090;52.330;9.104;2023-12-20T05:47:48;100548.38;;;7.02;100.00
3132;BME280;62090;52.330;9.104;2023-12-20T05:50:18;100576.00;;;7.20;100.00
3132;BME280;62090;52.330;9.104;2023-12-20T05:52:48;100547.50;;;7.02;100.00
3132;BME280;62090;52.330;9.104;2023-12-20T05:55:17;100588.38;;;7.35;100.00
3132;BME280;62090;52.330;9.104;2023-12-20T05:57:47;100572.06;;;7.28;100.00
3132;BME280;62090;52.330;9.104;2023-12-20T06:00:20;100571.94;;;7.25;100.00
3132;BME280;62090;52.330;9.104;2023-12-20T06:02:50;100585.53;;;7.27;100.00
3132;BME280;62090;52.330;9.104;2023-12-20T06:05:20;100556.75;;;7.01;100.00
3132;BME280;62090;52.330;9.104;2023-12-20T06:07:50;100580.84;;;7.14;100.00
3132;BME280;62090;52.330;9.104;2023-12-20T06:10:20;100552.78;;;7.08;100.00
3132;BME280;62090;52.330;9.104;2023-12-20T06:12:50;100451.50;;;6.38;100.00
3132;BME280;62090;52.330;9.104;2023-12-20T06:15:26;100469.28;;;6.40;100.00
3132;BME280;62090;52.330;9.104;2023-12-20T06:17:56;100623.06;;;7.37;100.00
3132;BME280;62090;52.330;9.104;2023-12-20T06:20:26;100374.94;;;5.96;100.00
3132;BME280;62090;52.330;9.104;2023-12-20T06:22:56;100576.50;;;6.88;100.00
3132;BME280;62090;52.330;9.104;2023-12-20T06:25:29;100481.41;;;6.48;100.00
3132;BME280;62090;52.330;9.104;2023-12-20T06:27:59;100570.88;;;6.95;100.00
3132;BME280;62090;52.330;9.104;2023-12-20T06:30:32;100551.53;;;6.97;100.00
3132;BME280;62090;52.330;9.104;2023-12-20T06:33:02;100437.03;;;6.34;100.00
3132;BME280;62090;52.330;9.104;2023-12-20T06:35:33;100450.00;;;6.43;100.00
3132;BME280;62090;52.330;9.104;2023-12-20T06:38:03;100571.63;;;7.16;100.00
3132;BME280;62090;52.330;9.104;2023-12-20T06:40:33;100561.28;;;7.10;100.00
3132;BME280;62090;52.330;9.104;2023-12-20T06:43:03;100534.97;;;6.83;100.00
3132;BME280;62090;52.330;9.104;2023-12-20T06:45:49;100584.84;;;7.31;100.00
3132;BME280;62090;52.330;9.104;2023-12-20T06:48:19;100510.66;;;6.88;100.00
3132;BME280;62090;52.330;9.104;2023-12-20T06:50:49;100507.47;;;6.92;100.00
3132;BME280;62090;52.330;9.104;2023-12-20T06:53:19;100517.13;;;7.03;100.00
3132;BME280;62090;52.330;9.104;2023-12-20T06:55:49;100524.06;;;7.07;100.00
3132;BME280;62090;52.330;9.104;2023-12-20T06:58:19;100520.13;;;6.92;100.00
3132;BME280;62090;52.330;9.104;2023-12-20T07:00:51;100393.66;;;6.25;100.00
3132;BME280;62090;52.330;9.104;2023-12-20T07:03:21;100502.97;;;6.85;100.00
3132;BME280;62090;52.330;9.104;2023-12-20T07:05:51;100541.88;;;7.10;100.00
3132;BME280;62090;52.330;9.104;2023-12-20T07:08:21;100365.22;;;6.08;100.00
3132;BME280;62090;52.330;9.104;2023-12-20T07:10:51;100524.53;;;6.97;100.00
3132;BME280;62090;52.330;9.104;2023-12-20T07:13:21;100410.09;;;6.36;100.00
3132;BME280;62090;52.330;9.104;2023-12-20T07:15:54;100431.66;;;6.49;100.00
3132;BME280;62090;52.330;9.104;2023-12-20T07:18:24;100331.78;;;5.91;100.00
3132;BME280;62090;52.330;9.104;2023-12-20T07:20:54;100419.72;;;6.46;100.00
3132;BME280;62090;52.330;9.104;2023-12-20T07:23:24;100511.66;;;6.91;100.00
3132;BME280;62090;52.330;9.104;2023-12-20T07:25:54;100494.91;;;6.71;100.00
3132;BME280;62090;52.330;9.104;2023-12-20T07:28:24;100555.03;;;7.24;100.00
3132;BME280;62090;52.330;9.104;2023-12-20T07:30:56;100509.22;;;6.94;100.00
3132;BME280;62090;52.330;9.104;2023-12-20T07:33:27;100471.56;;;6.79;100.00
3132;BME280;62090;52.330;9.104;2023-12-20T07:36:06;100549.75;;;7.18;100.00
3132;BME280;62090;52.330;9.104;2023-12-20T07:38:36;100541.13;;;7.13;100.00
3132;BME280;62090;52.330;9.104;2023-12-20T07:41:06;100543.97;;;6.98;100.00
3132;BME280;62090;52.330;9.104;2023-12-20T07:43:35;100482.25;;;6.71;100.00
3132;BME280;62090;52.330;9.104;2023-12-20T07:46:08;100550.41;;;7.12;100.00
3132;BME280;62090;52.330;9.104;2023-12-20T07:48:38;100547.97;;;7.15;100.00
3132;BME280;62090;52.330;9.104;2023-12-20T07:51:12;100562.44;;;7.18;100.00
3132;BME280;62090;52.330;9.104;2023-12-20T07:53:41;100509.53;;;7.03;100.00
3132;BME280;62090;52.330;9.104;2023-12-20T07:56:15;100525.44;;;7.23;100.00
3132;BME280;62090;52.330;9.104;2023-12-20T07:58:46;100541.75;;;7.31;100.00
3132;BME280;62090;52.330;9.104;2023-12-20T08:01:22;100515.03;;;7.15;100.00
3132;BME280;62090;52.330;9.104;2023-12-20T08:03:52;100557.25;;;7.40;100.00
3132;BME280;62090;52.330;9.104;2023-12-20T08:06:22;100535.44;;;7.20;100.00
3132;BME280;62090;52.330;9.104;2023-12-20T08:08:52;100552.97;;;7.38;100.00
3132;BME280;62090;52.330;9.104;2023-12-20T08:11:32;100547.84;;;7.36;100.00
3132;BME280;62090;52.330;9.104;2023-12-20T08:14:02;100453.50;;;6.94;100.00
3132;BME280;62090;52.330;9.104;2023-12-20T08:16:34;100498.00;;;7.11;100.00
3132;BME280;62090;52.330;9.104;2023-12-20T08:19:04;100481.94;;;7.11;100.00
3132;BME280;62090;52.330;9.104;2023-12-20T08:21:34;100461.38;;;6.78;100.00
3132;BME280;62090;52.330;9.104;2023-12-20T08:24:06;100477.28;;;6.98;100.00
3132;BME280;62090;52.330;9.104;2023-12-20T08:26:36;100503.28;;;7.17;100.00
3132;BME280;62090;52.330;9.104;2023-12-20T08:29:05;100488.44;;;7.03;100.00
3132;BME280;62090;52.330;9.104;2023-12-20T08:31:35;100532.59;;;7.35;100.00
3132;BME280;62090;52.330;9.104;2023-12-20T08:34:05;100485.25;;;7.08;100.00
3132;BME280;62090;52.330;9.104;2023-12-20T08:36:35;100447.34;;;6.88;100.00
3132;BME280;62090;52.330;9.104;2023-12-20T08:39:05;100452.53;;;6.91;100.00
3132;BME280;62090;52.330;9.104;2023-12-20T08:41:35;100513.81;;;7.30;100.00
3132;BME280;62090;52.330;9.104;2023-12-20T08:44:05;100469.69;;;6.98;100.00
3132;BME280;62090;52.330;9.104;2023-12-20T08:46:38;100522.50;;;7.36;100.00
3132;BME280;62090;52.330;9.104;2023-12-20T08:49:07;100428.94;;;6.92;100.00
3132;BME280;62090;52.330;9.104;2023-12-20T08:51:37;100482.25;;;7.20;100.00
3132;BME280;62090;52.330;9.104;2023-12-20T08:54:09;100453.84;;;7.05;100.00
3132;BME280;62090;52.330;9.104;2023-12-20T08:56:40;100492.13;;;7.38;100.00
3132;BME280;62090;52.330;9.104;2023-12-20T08:59:10;100414.25;;;6.82;100.00
3132;BME280;62090;52.330;9.104;2023-12-20T09:01:42;100418.91;;;6.95;100.00
3132;BME280;62090;52.330;9.104;2023-12-20T09:04:13;100483.59;;;7.36;100.00
3132;BME280;62090;52.330;9.104;2023-12-20T09:06:43;100474.25;;;7.33;100.00
3132;BME280;62090;52.330;9.104;2023-12-20T09:09:13;100401.28;;;6.98;100.00
3132;BME280;62090;52.330;9.104;2023-12-20T09:11:43;100414.31;;;7.08;100.00
3132;BME280;62090;52.330;9.104;2023-12-20T09:14:14;100464.31;;;7.39;100.00
3132;BME280;62090;52.330;9.104;2023-12-20T09:16:46;100462.59;;;7.38;100.00
3132;BME280;62090;52.330;9.104;2023-12-20T09:19:18;100399.78;;;7.04;100.00
3132;BME280;62090;52.330;9.104;2023-12-20T09:21:47;100441.34;;;7.35;100.00
3132;BME280;62090;52.330;9.104;2023-12-20T09:24:17;100410.41;;;7.18;100.00
3132;BME280;62090;52.330;9.104;2023-12-20T09:26:47;100427.03;;;7.37;100.00
3132;BME280;62090;52.330;9.104;2023-12-20T09:29:17;100445.84;;;7.43;100.00
3132;BME280;62090;52.330;9.104;2023-12-20T09:31:49;100471.75;;;7.60;100.00
3132;BME280;62090;52.330;9.104;2023-12-20T09:34:19;100395.47;;;7.27;100.00
3132;BME280;62090;52.330;9.104;2023-12-20T09:36:49;100447.66;;;7.47;100.00
3132;BME280;62090;52.330;9.104;2023-12-20T09:39:21;100415.31;;;7.40;100.00
3132;BME280;62090;52.330;9.104;2023-12-20T09:41:59;100455.06;;;7.67;100.00
3132;BME280;62090;52.330;9.104;2023-12-20T09:44:30;100419.06;;;7.51;100.00
3132;BME280;62090;52.330;9.104;2023-12-20T09:47:05;100359.88;;;7.22;100.00
3132;BME280;62090;52.330;9.104;2023-12-20T09:49:35;100446.84;;;7.75;100.00
3132;BME280;62090;52.330;9.104;2023-12-20T09:52:07;100372.88;;;7.33;100.00
3132;BME280;62090;52.330;9.104;2023-12-20T09:54:39;100355.94;;;7.32;100.00
3132;BME280;62090;52.330;9.104;2023-12-20T09:57:09;100448.53;;;7.75;100.00
3132;BME280;62090;52.330;9.104;2023-12-20T09:59:40;100434.84;;;7.70;100.00
3132;BME280;62090;52.330;9.104;2023-12-20T10:02:13;100409.09;;;7.57;100.00
3132;BME280;62090;52.330;9.104;2023-12-20T10:04:46;100386.59;;;7.40;100.00
3132;BME280;62090;52.330;9.104;2023-12-20T10:07:17;100435.03;;;7.76;100.00
3132;BME280;62090;52.330;9.104;2023-12-20T10:09:48;100431.59;;;7.74;100.00
3132;BME280;62090;52.330;9.104;2023-12-20T10:12:19;100422.38;;;7.76;100.00
3132;BME280;62090;52.330;9.104;2023-12-20T10:14:49;100436.66;;;7.74;100.00
3132;BME280;62090;52.330;9.104;2023-12-20T10:17:21;100328.13;;;7.07;100.00
3132;BME280;62090;52.330;9.104;2023-12-20T10:19:52;100444.31;;;7.75;100.00
3132;BME280;62090;52.330;9.104;2023-12-20T10:22:22;100432.44;;;7.74;100.00
3132;BME280;62090;52.330;9.104;2023-12-20T10:24:52;100398.88;;;7.54;100.00
3132;BME280;62090;52.330;9.104;2023-12-20T10:27:22;100412.03;;;7.70;100.00
3132;BME280;62090;52.330;9.104;2023-12-20T10:29:52;100354.69;;;7.46;100.00
3132;BME280;62090;52.330;9.104;2023-12-20T10:32:27;100390.81;;;7.68;100.00
3132;BME280;62090;52.330;9.104;2023-12-20T10:34:57;100364.81;;;7.46;100.00
3132;BME280;62090;52.330;9.104;2023-12-20T10:37:27;100400.41;;;7.76;100.00
3132;BME280;62090;52.330;9.104;2023-12-20T10:39:59;100412.22;;;7.76;100.00
3132;BME280;62090;52.330;9.104;2023-12-20T10:42:33;100374.94;;;7.46;100.00
3132;BME280;62090;52.330;9.104;2023-12-20T10:45:05;100416.47;;;7.77;100.00
3132;BME280;62090;52.330;9.104;2023-12-20T10:47:39;100368.28;;;7.48;100.00
3132;BME280;62090;52.330;9.104;2023-12-20T10:50:10;100397.06;;;7.77;100.00
3132;BME280;62090;52.330;9.104;2023-12-20T10:52:41;100384.22;;;7.73;100.00
3132;BME280;62090;52.330;9.104;2023-12-20T10:55:12;100424.63;;;7.95;100.00
3132;BME280;62090;52.330;9.104;2023-12-20T10:57:43;100411.94;;;7.95;100.00
3132;BME280;62090;52.330;9.104;2023-12-20T11:00:18;100414.41;;;7.92;100.00
3132;BME280;62090;52.330;9.104;2023-12-20T11:02:51;100375.91;;;7.77;100.00
3132;BME280;62090;52.330;9.104;2023-12-20T11:05:31;100406.13;;;7.99;100.00
3132;BME280;62090;52.330;9.104;2023-12-20T11:08:12;100363.38;;;7.83;100.00
3132;BME280;62090;52.330;9.104;2023-12-20T11:10:51;100356.41;;;7.76;100.00
3132;BME280;62090;52.330;9.104;2023-12-20T11:13:30;100325.41;;;7.56;100.00
3132;BME280;62090;52.330;9.104;2023-12-20T11:16:02;100296.13;;;7.37;100.00
3132;BME280;62090;52.330;9.104;2023-12-20T11:18:35;100383.41;;;8.02;100.00
3132;BME280;62090;52.330;9.104;2023-12-20T11:21:05;100378.31;;;8.02;100.00
3132;BME280;62090;52.330;9.104;2023-12-20T11:23:35;100405.94;;;8.21;100.00
3132;BME280;62090;52.330;9.104;2023-12-20T11:26:05;100406.72;;;8.19;100.00
3132;BME280;62090;52.330;9.104;2023-12-20T11:28:35;100410.28;;;8.25;100.00
3132;BME280;62090;52.330;9.104;2023-12-20T11:31:05;100411.97;;;8.25;100.00
3132;BME280;62090;52.330;9.104;2023-12-20T11:33:40;100282.09;;;7.48;100.00
3132;BME280;62090;52.330;9.104;2023-12-20T11:36:17;100276.56;;;7.33;100.00
3132;BME280;62090;52.330;9.104;2023-12-20T11:38:59;100326.22;;;7.55;100.00
3132;BME280;62090;52.330;9.104;2023-12-20T11:41:51;100430.69;;;7.72;100.00
3132;BME280;62090;52.330;9.104;2023-12-20T11:44:25;100311.16;;;6.28;100.00
3132;BME280;62090;52.330;9.104;2023-12-20T11:47:02;100488.22;;;6.97;100.00
3132;BME280;62090;52.330;9.104;2023-12-20T11:49:37;100206.66;;;4.90;100.00
3132;BME280;62090;52.330;9.104;2023-12-20T11:52:08;100395.19;;;5.98;100.00
3132;BME280;62090;52.330;9.104;2023-12-20T11:54:38;100411.16;;;5.74;100.00
3132;BME280;62090;52.330;9.104;2023-12-20T11:57:07;100488.38;;;6.31;100.00
3132;BME280;62090;52.330;9.104;2023-12-20T11:59:37;100472.91;;;6.24;100.00
3132;BME280;62090;52.330;9.104;2023-12-20T12:02:07;100468.50;;;6.18;100.00
3132;BME280;62090;52.330;9.104;2023-12-20T12:04:41;100419.00;;;6.03;100.00
3132;BME280;62090;52.330;9.104;2023-12-20T12:07:11;100453.25;;;6.17;100.00
3132;BME280;62090;52.330;9.104;2023-12-20T12:09:41;100411.03;;;5.92;100.00
3132;BME280;62090;52.330;9.104;2023-12-20T12:12:11;100475.16;;;6.39;100.00
3132;BME280;62090;52.330;9.104;2023-12-20T12:14:42;100463.59;;;6.23;100.00
3132;BME280;62090;52.330;9.104;2023-12-20T12:17:12;100357.81;;;5.68;100.00
3132;BME280;62090;52.330;9.104;2023-12-20T12:19:44;100382.75;;;6.26;100.00
3132;BME280;62090;52.330;9.104;2023-12-20T12:22:15;100337.72;;;5.93;100.00
3132;BME280;62090;52.330;9.104;2023-12-20T12:24:47;100435.69;;;6.67;100.00
3132;BME280;62090;52.330;9.104;2023-12-20T12:27:17;100428.31;;;6.73;100.00
3132;BME280;62090;52.330;9.104;2023-12-20T12:30:00;100418.16;;;6.73;100.00
3132;BME280;62090;52.330;9.104;2023-12-20T12:32:32;100375.25;;;6.53;100.00
3132;BME280;62090;52.330;9.104;2023-12-20T12:35:06;100437.66;;;7.00;100.00
3132;BME280;62090;52.330;9.104;2023-12-20T12:37:38;100424.84;;;6.95;100.00
3132;BME280;62090;52.330;9.104;2023-12-20T12:40:10;100370.00;;;6.72;100.00
3132;BME280;62090;52.330;9.104;2023-12-20T12:42:41;100421.13;;;7.11;100.00
3132;BME280;62090;52.330;9.104;2023-12-20T12:45:12;100381.91;;;7.00;100.00
3132;BME280;62090;52.330;9.104;2023-12-20T12:47:42;100398.25;;;7.08;100.00
3132;BME280;62090;52.330;9.104;2023-12-20T12:50:15;100414.97;;;7.30;100.00
3132;BME280;62090;52.330;9.104;2023-12-20T12:52:46;100410.09;;;7.36;100.00
3132;BME280;62090;52.330;9.104;2023-12-20T12:55:16;100401.75;;;7.38;100.00
3132;BME280;62090;52.330;9.104;2023-12-20T12:57:46;100397.69;;;7.43;100.00
3132;BME280;62090;52.330;9.104;2023-12-20T13:00:16;100374.47;;;7.31;100.00
3132;BME280;62090;52.330;9.104;2023-12-20T13:02:46;100401.31;;;7.51;100.00
3132;BME280;62090;52.330;9.104;2023-12-20T13:05:18;100374.75;;;7.40;100.00
3132;BME280;62090;52.330;9.104;2023-12-20T13:07:48;100403.16;;;7.57;100.00
3132;BME280;62090;52.330;9.104;2023-12-20T13:10:18;100388.56;;;7.48;100.00
3132;BME280;62090;52.330;9.104;2023-12-20T13:12:48;100401.88;;;7.70;100.00
3132;BME280;62090;52.330;9.104;2023-12-20T13:15:18;100388.00;;;7.58;100.00
3132;BME280;62090;52.330;9.104;2023-12-20T13:17:48;100316.84;;;7.24;100.00
3132;BME280;62090;52.330;9.104;2023-12-20T13:20:21;100397.88;;;7.78;100.00
3132;BME280;62090;52.330;9.104;2023-12-20T13:22:51;100401.16;;;7.74;100.00
3132;BME280;62090;52.330;9.104;2023-12-20T13:25:21;100394.19;;;7.67;100.00
3132;BME280;62090;52.330;9.104;2023-12-20T13:27:53;100390.94;;;7.71;100.00